sensor_id;sensor_type;location;lat;lon;timestamp;pressure;altitude;pressure_sealevel;temperature;humidity
30339;BME280;795;49.296;11.348;2022-11-20T00:01:31;95819.75;;;0.68;100.00
30339;BME280;795;49.296;11.348;2022-11-20T00:03:59;95827.56;;;0.70;100.00
30339;BME280;795;49.296;11.348;2022-11-20T00:06:28;95812.69;;;0.57;100.00
30339;BME280;795;49.296;11.348;2022-11-20T00:08:59;95815.72;;;0.53;100.00
30339;BME280;795;49.296;11.348;2022-11-20T00:11:30;95813.06;;;0.53;100.00
30339;BME280;795;49.296;11.348;2022-11-20T00:14:01;95808.41;;;0.45;100.00
30339;BME280;795;49.296;11.348;2022-11-20T00:16:32;95816.78;;;0.50;100.00
30339;BME280;795;49.296;11.348;2022-11-20T00:19:00;95811.13;;;0.44;100.00
30339;BME280;795;49.296;11.348;2022-11-20T00:21:29;95813.56;;;0.36;100.00
30339;BME280;795;49.296;11.348;2022-11-20T00:23:57;95813.78;;;0.44;100.00
30339;BME280;795;49.296;11.348;2022-11-20T00:26:27;95820.28;;;0.40;100.00
30339;BME280;795;49.296;11.348;2022-11-20T00:28:59;95822.91;;;0.40;100.00
30339;BME280;795;49.296;11.348;2022-11-20T00:31:28;95816.78;;;0.39;100.00
30339;BME280;795;49.296;11.348;2022-11-20T00:33:56;95814.28;;;0.38;100.00
30339;BME280;795;49.296;11.348;2022-11-20T00:36:26;95815.38;;;0.35;100.00
30339;BME280;795;49.296;11.348;2022-11-20T00:38:57;95820.88;;;0.32;100.00
30339;BME280;795;49.296;11.348;2022-11-20T00:41:28;95824.72;;;0.39;100.00
30339;BME280;795;49.296;11.348;2022-11-20T00:43:56;95821.13;;;0.40;100.00
30339;BME280;795;49.296;11.348;2022-11-20T00:46:28;95820.88;;;0.43;100.00
30339;BME280;795;49.296;11.348;2022-11-20T00:48:56;95829.63;;;0.44;100.00
30339;BME280;795;49.296;11.348;2022-11-20T00:51:26;95829.00;;;0.51;100.00
30339;BME280;795;49.296;11.348;2022-11-20T00:53:58;95816.09;;;0.48;100.00
30339;BME280;795;49.296;11.348;2022-11-20T00:56:26;95816.91;;;0.49;100.00
30339;BME280;795;49.296;11.348;2022-11-20T00:58:53;95814.63;;;0.44;100.00
30339;BME280;795;49.296;11.348;2022-11-20T01:01:25;95824.59;;;0.41;100.00
30339;BME280;795;49.296;11.348;2022-11-20T01:03:57;95830.97;;;0.38;100.00
30339;BME280;795;49.296;11.348;2022-11-20T01:06:36;95836.47;;;0.46;100.00
30339;BME280;795;49.296;11.348;2022-11-20T01:09:11;95829.50;;;0.34;100.00
30339;BME280;795;49.296;11.348;2022-11-20T01:11:43;95824.13;;;0.25;100.00
30339;BME280;795;49.296;11.348;2022-11-20T01:14:18;95828.94;;;0.31;100.00
30339;BME280;795;49.296;11.348;2022-11-20T01:16:50;95825.94;;;0.24;100.00
30339;BME280;795;49.296;11.348;2022-11-20T01:19:22;95830.25;;;0.25;100.00
30339;BME280;795;49.296;11.348;2022-11-20T01:21:54;95824.13;;;0.25;100.00
30339;BME280;795;49.296;11.348;2022-11-20T01:24:22;95836.50;;;0.24;100.00
30339;BME280;795;49.296;11.348;2022-11-20T01:26:51;95830.00;;;0.28;100.00
30339;BME280;795;49.296;11.348;2022-11-20T01:29:23;95833.63;;;0.38;100.00
30339;BME280;795;49.296;11.348;2022-11-20T01:31:52;95834.59;;;0.26;100.00
30339;BME280;795;49.296;11.348;2022-11-20T01:34:22;95827.75;;;0.24;100.00
30339;BME280;795;49.296;11.348;2022-11-20T01:36:51;95830.97;;;0.38;100.00
30339;BME280;795;49.296;11.348;2022-11-20T01:39:23;95821.13;;;0.40;100.00
30339;BME280;795;49.296;11.348;2022-11-20T01:41:54;95824.13;;;0.36;100.00
30339;BME280;795;49.296;11.348;2022-11-20T01:44:54;95825.22;;;0.33;100.00
30339;BME280;795;49.296;11.348;2022-11-20T01:47:40;95828.34;;;0.38;100.00
30339;BME280;795;49.296;11.348;2022-11-20T01:50:17;95825.91;;;0.57;100.00
30339;BME280;795;49.296;11.348;2022-11-20T01:52:59;95824.94;;;0.47;100.00
30339;BME280;795;49.296;11.348;2022-11-20T01:55:48;95817.28;;;0.55;100.00
30339;BME280;795;49.296;11.348;2022-11-20T01:58:22;95815.94;;;0.39;100.00
30339;BME280;795;49.296;11.348;2022-11-20T02:00:50;95811.03;;;0.45;100.00
30339;BME280;795;49.296;11.348;2022-11-20T02:03:20;95822.19;;;0.60;100.00
30339;BME280;795;49.296;11.348;2022-11-20T02:06:14;95818.72;;;0.48;100.00
30339;BME280;795;49.296;11.348;2022-11-20T02:08:43;95812.69;;;0.57;100.00
30339;BME280;795;49.296;11.348;2022-11-20T02:11:10;95816.91;;;0.49;100.00
30339;BME280;795;49.296;11.348;2022-11-20T02:13:40;95811.25;;;0.64;100.00
30339;BME280;795;49.296;11.348;2022-11-20T02:16:26;95805.34;;;0.61;100.00
30339;BME280;795;49.296;11.348;2022-11-20T02:19:00;95806.81;;;0.65;100.00
30339;BME280;795;49.296;11.348;2022-11-20T02:22:05;95813.31;;;0.50;100.00
30339;BME280;795;49.296;11.348;2022-11-20T02:24:34;95807.56;;;0.45;100.00
30339;BME280;795;49.296;11.348;2022-11-20T02:27:14;95810.53;;;0.51;100.00
30339;BME280;795;49.296;11.348;2022-11-20T02:29:53;95810.06;;;0.57;100.00
30339;BME280;795;49.296;11.348;2022-11-20T02:32:31;95804.03;;;0.66;100.00
30339;BME280;795;49.296;11.348;2022-11-20T02:35:49;95805.97;;;0.64;100.00
30339;BME280;795;49.296;11.348;2022-11-20T02:38:02;95806.28;;;0.71;100.00
30339;BME280;795;49.296;11.348;2022-11-20T02:40:29;95805.09;;;0.64;100.00
30339;BME280;795;49.296;11.348;2022-11-20T02:42:57;95804.16;;;0.65;100.00
30339;BME280;795;49.296;11.348;2022-11-20T02:45:25;95798.50;;;0.58;100.00
30339;BME280;795;49.296;11.348;2022-11-20T02:47:52;95801.75;;;0.62;100.00
30339;BME280;795;49.296;11.348;2022-11-20T02:50:20;95802.59;;;0.62;100.00
30339;BME280;795;49.296;11.348;2022-11-20T02:52:47;95808.00;;;0.61;100.00
30339;BME280;795;49.296;11.348;2022-11-20T02:55:14;95795.41;;;0.64;100.00
30339;BME280;795;49.296;11.348;2022-11-20T02:57:41;95809.22;;;0.57;100.00
30339;BME280;795;49.296;11.348;2022-11-20T03:00:09;95798.59;;;0.68;100.00
30339;BME280;795;49.296;11.348;2022-11-20T03:02:36;95797.31;;;0.62;100.00
30339;BME280;795;49.296;11.348;2022-11-20T03:05:03;95799.25;;;0.60;100.00
30339;BME280;795;49.296;11.348;2022-11-20T03:07:30;95795.88;;;0.58;100.00
30339;BME280;795;49.296;11.348;2022-11-20T03:09:57;95797.78;;;0.68;100.00
30339;BME280;795;49.296;11.348;2022-11-20T03:12:24;95798.66;;;0.57;100.00
30339;BME280;795;49.296;11.348;2022-11-20T03:14:51;95801.91;;;0.60;100.00
30339;BME280;795;49.296;11.348;2022-11-20T03:17:19;95786.84;;;0.72;100.00
30339;BME280;795;49.296;11.348;2022-11-20T03:19:46;95795.84;;;0.70;100.00
30339;BME280;795;49.296;11.348;2022-11-20T03:22:13;95792.63;;;0.66;100.00
30339;BME280;795;49.296;11.348;2022-11-20T03:24:40;95796.06;;;0.78;100.00
30339;BME280;795;49.296;11.348;2022-11-20T03:27:07;95795.34;;;0.87;100.00
30339;BME280;795;49.296;11.348;2022-11-20T03:29:35;95795.56;;;0.84;100.00
30339;BME280;795;49.296;11.348;2022-11-20T03:32:02;95781.91;;;0.79;100.00
30339;BME280;795;49.296;11.348;2022-11-20T03:34:29;95786.09;;;0.81;100.00
30339;BME280;795;49.296;11.348;2022-11-20T03:36:56;95790.75;;;0.89;100.00
30339;BME280;795;49.296;11.348;2022-11-20T03:39:23;95786.19;;;0.91;100.00
30339;BME280;795;49.296;11.348;2022-11-20T03:41:50;95793.63;;;0.86;100.00
30339;BME280;795;49.296;11.348;2022-11-20T03:44:20;95791.72;;;0.88;100.00
30339;BME280;795;49.296;11.348;2022-11-20T03:46:48;95794.50;;;0.86;100.00
30339;BME280;795;49.296;11.348;2022-11-20T03:49:14;95783.03;;;0.97;100.00
30339;BME280;795;49.296;11.348;2022-11-20T03:51:41;95782.06;;;0.98;100.00
30339;BME280;795;49.296;11.348;2022-11-20T03:54:09;95791.41;;;1.02;100.00
30339;BME280;795;49.296;11.348;2022-11-20T03:56:38;95790.97;;;0.97;100.00
30339;BME280;795;49.296;11.348;2022-11-20T03:59:06;95781.97;;;0.99;100.00
30339;BME280;795;49.296;11.348;2022-11-20T04:01:36;95790.13;;;0.96;100.00
30339;BME280;795;49.296;11.348;2022-11-20T04:04:12;95786.00;;;1.03;100.00
30339;BME280;795;49.296;11.348;2022-11-20T04:06:39;95780.91;;;0.91;100.00
30339;BME280;795;49.296;11.348;2022-11-20T04:09:06;95786.69;;;0.85;100.00
30339;BME280;795;49.296;11.348;2022-11-20T04:11:37;95789.16;;;0.97;100.00
30339;BME280;795;49.296;11.348;2022-11-20T04:14:14;95789.88;;;0.99;100.00
30339;BME280;795;49.296;11.348;2022-11-20T04:16:42;95792.00;;;1.05;100.00
30339;BME280;795;49.296;11.348;2022-11-20T04:19:14;95788.06;;;1.00;100.00
30339;BME280;795;49.296;11.348;2022-11-20T04:21:43;95787.31;;;1.09;100.00
30339;BME280;795;49.296;11.348;2022-11-20T04:24:11;95788.13;;;1.09;100.00
30339;BME280;795;49.296;11.348;2022-11-20T04:26:38;95785.16;;;1.03;100.00
30339;BME280;795;49.296;11.348;2022-11-20T04:29:06;95782.53;;;1.03;100.00
30339;BME280;795;49.296;11.348;2022-11-20T04:31:34;95779.41;;;1.09;100.00
30339;BME280;795;49.296;11.348;2022-11-20T04:34:05;95785.41;;;1.00;100.00
30339;BME280;795;49.296;11.348;2022-11-20T04:36:33;95780.81;;;1.13;100.00
30339;BME280;795;49.296;11.348;2022-11-20T04:39:05;95779.50;;;1.07;100.00
30339;BME280;795;49.296;11.348;2022-11-20T04:41:36;95780.28;;;1.19;100.00
30339;BME280;795;49.296;11.348;2022-11-20T04:44:05;95781.97;;;1.20;100.00
30339;BME280;795;49.296;11.348;2022-11-20T04:46:41;95778.94;;;1.24;100.00
30339;BME280;795;49.296;11.348;2022-11-20T04:49:11;95772.50;;;1.17;100.00
30339;BME280;795;49.296;11.348;2022-11-20T04:51:38;95769.84;;;1.17;100.00
30339;BME280;795;49.296;11.348;2022-11-20T04:54:05;95767.06;;;1.19;100.00
30339;BME280;795;49.296;11.348;2022-11-20T04:56:32;95766.88;;;1.11;100.00
30339;BME280;795;49.296;11.348;2022-11-20T04:59:03;95771.53;;;1.18;100.00
30339;BME280;795;49.296;11.348;2022-11-20T05:01:30;95773.81;;;1.12;100.00
30339;BME280;795;49.296;11.348;2022-11-20T05:03:57;95773.59;;;1.15;100.00
30339;BME280;795;49.296;11.348;2022-11-20T05:06:24;95776.22;;;1.15;100.00
30339;BME280;795;49.296;11.348;2022-11-20T05:08:51;95775.91;;;1.08;100.00
30339;BME280;795;49.296;11.348;2022-11-20T05:11:21;95771.78;;;1.15;100.00
30339;BME280;795;49.296;11.348;2022-11-20T05:13:50;95775.00;;;1.19;100.00
30339;BME280;795;49.296;11.348;2022-11-20T05:16:22;95769.25;;;1.14;100.00
30339;BME280;795;49.296;11.348;2022-11-20T05:18:52;95772.03;;;0.92;100.00
30339;BME280;795;49.296;11.348;2022-11-20T05:21:21;95771.56;;;1.07;100.00
30339;BME280;795;49.296;11.348;2022-11-20T05:23:48;95760.13;;;1.18;100.00
30339;BME280;795;49.296;11.348;2022-11-20T05:26:21;95768.50;;;1.23;100.00
30339;BME280;795;49.296;11.348;2022-11-20T05:28:50;95761.31;;;1.14;100.00
30339;BME280;795;49.296;11.348;2022-11-20T05:31:24;95768.28;;;1.15;100.00
30339;BME280;795;49.296;11.348;2022-11-20T05:33:56;95765.50;;;1.16;100.00
30339;BME280;795;49.296;11.348;2022-11-20T05:36:24;95772.03;;;1.12;100.00
30339;BME280;795;49.296;11.348;2022-11-20T05:38:51;95762.09;;;1.05;100.00
30339;BME280;795;49.296;11.348;2022-11-20T05:41:24;95763.25;;;1.12;100.00
30339;BME280;795;49.296;11.348;2022-11-20T05:43:52;95759.44;;;1.05;100.00
30339;BME280;795;49.296;11.348;2022-11-20T05:46:21;95763.88;;;1.04;100.00
30339;BME280;795;49.296;11.348;2022-11-20T05:48:56;95764.16;;;1.22;100.00
30339;BME280;795;49.296;11.348;2022-11-20T05:51:26;95761.75;;;1.30;100.00
30339;BME280;795;49.296;11.348;2022-11-20T05:53:55;95759.88;;;1.21;100.00
30339;BME280;795;49.296;11.348;2022-11-20T05:56:22;95758.31;;;1.18;100.00
30339;BME280;795;49.296;11.348;2022-11-20T05:58:49;95758.97;;;1.11;100.00
30339;BME280;795;49.296;11.348;2022-11-20T06:01:25;95752.56;;;1.13;100.00
30339;BME280;795;49.296;11.348;2022-11-20T06:03:54;95758.03;;;1.21;100.00
30339;BME280;795;49.296;11.348;2022-11-20T06:06:21;95760.13;;;1.18;100.00
30339;BME280;795;49.296;11.348;2022-11-20T06:08:49;95767.34;;;1.16;100.00
30339;BME280;795;49.296;11.348;2022-11-20T06:11:17;95770.09;;;1.14;100.00
30339;BME280;795;49.296;11.348;2022-11-20T06:13:46;95772.50;;;1.17;100.00
30339;BME280;795;49.296;11.348;2022-11-20T06:16:18;95758.63;;;1.25;100.00
30339;BME280;795;49.296;11.348;2022-11-20T06:18:47;95761.66;;;1.20;100.00
30339;BME280;795;49.296;11.348;2022-11-20T06:21:21;95765.78;;;1.13;100.00
30339;BME280;795;49.296;11.348;2022-11-20T06:23:51;95774.75;;;1.22;100.00
30339;BME280;795;49.296;11.348;2022-11-20T06:26:24;95778.31;;;1.32;100.00
30339;BME280;795;49.296;11.348;2022-11-20T06:28:53;95774.50;;;1.25;100.00
30339;BME280;795;49.296;11.348;2022-11-20T06:31:23;95769.00;;;1.17;100.00
30339;BME280;795;49.296;11.348;2022-11-20T06:33:52;95764.31;;;1.20;100.00
30339;BME280;795;49.296;11.348;2022-11-20T06:36:22;95776.63;;;1.31;100.00
30339;BME280;795;49.296;11.348;2022-11-20T06:38:50;95774.97;;;1.30;100.00
30339;BME280;795;49.296;11.348;2022-11-20T06:41:21;95771.47;;;1.29;100.00
30339;BME280;795;49.296;11.348;2022-11-20T06:43:49;95769.59;;;1.41;100.00
30339;BME280;795;49.296;11.348;2022-11-20T06:46:18;95769.78;;;1.28;100.00
30339;BME280;795;49.296;11.348;2022-11-20T06:48:47;95767.47;;;1.35;100.00
30339;BME280;795;49.296;11.348;2022-11-20T06:51:15;95761.75;;;1.30;100.00
30339;BME280;795;49.296;11.348;2022-11-20T06:53:42;95752.66;;;1.23;100.00
30339;BME280;795;49.296;11.348;2022-11-20T06:56:09;95746.06;;;1.17;100.00
30339;BME280;795;49.296;11.348;2022-11-20T06:58:37;95740.38;;;1.22;100.00
30339;BME280;795;49.296;11.348;2022-11-20T07:01:14;95771.97;;;1.44;100.00
30339;BME280;795;49.296;11.348;2022-11-20T07:03:42;95767.66;;;1.43;100.00
30339;BME280;795;49.296;11.348;2022-11-20T07:06:10;95746.97;;;1.27;100.00
30339;BME280;795;49.296;11.348;2022-11-20T07:08:37;95775.41;;;1.35;100.00
30339;BME280;795;49.296;11.348;2022-11-20T07:11:07;95777.81;;;1.38;100.00
30339;BME280;795;49.296;11.348;2022-11-20T07:13:35;95779.00;;;1.34;100.00
30339;BME280;795;49.296;11.348;2022-11-20T07:16:07;95785.00;;;1.36;100.00
30339;BME280;795;49.296;11.348;2022-11-20T07:18:36;95782.81;;;1.41;100.00
30339;BME280;795;49.296;11.348;2022-11-20T07:21:08;95782.56;;;1.44;100.00
30339;BME280;795;49.296;11.348;2022-11-20T07:23:37;95789.91;;;1.41;100.00
30339;BME280;795;49.296;11.348;2022-11-20T07:26:10;95792.50;;;1.52;100.00
30339;BME280;795;49.296;11.348;2022-11-20T07:28:38;95787.47;;;1.49;100.00
30339;BME280;795;49.296;11.348;2022-11-20T07:31:06;95786.63;;;1.48;100.00
30339;BME280;795;49.296;11.348;2022-11-20T07:33:34;95772.53;;;1.38;100.00
30339;BME280;795;49.296;11.348;2022-11-20T07:36:01;95790.81;;;1.51;100.00
30339;BME280;795;49.296;11.348;2022-11-20T07:38:29;95787.00;;;1.44;100.00
30339;BME280;795;49.296;11.348;2022-11-20T07:40:57;95782.88;;;1.51;100.00
30339;BME280;795;49.296;11.348;2022-11-20T07:43:24;95785.22;;;1.44;100.00
30339;BME280;795;49.296;11.348;2022-11-20T07:45:52;95796.44;;;1.57;100.00
30339;BME280;795;49.296;11.348;2022-11-20T07:48:19;95786.50;;;1.50;100.00
30339;BME280;795;49.296;11.348;2022-11-20T07:50:45;95789.47;;;1.56;100.00
30339;BME280;795;49.296;11.348;2022-11-20T07:53:12;95789.22;;;1.59;100.00
30339;BME280;795;49.296;11.348;2022-11-20T07:55:40;95788.06;;;1.52;100.00
30339;BME280;795;49.296;11.348;2022-11-20T07:58:07;95796.69;;;1.54;100.00
30339;BME280;795;49.296;11.348;2022-11-20T08:00:34;95799.53;;;1.62;100.00
30339;BME280;795;49.296;11.348;2022-11-20T08:03:04;95785.28;;;1.74;100.00
30339;BME280;795;49.296;11.348;2022-11-20T08:05:31;95791.59;;;1.62;100.00
30339;BME280;795;49.296;11.348;2022-11-20T08:07:58;95803.44;;;1.68;100.00
30339;BME280;795;49.296;11.348;2022-11-20T08:10:25;95797.53;;;1.55;100.00
30339;BME280;795;49.296;11.348;2022-11-20T08:12:53;95793.72;;;1.68;100.00
30339;BME280;795;49.296;11.348;2022-11-20T08:15:40;95804.50;;;1.56;100.00
30339;BME280;795;49.296;11.348;2022-11-20T08:18:12;95807.84;;;1.58;100.00
30339;BME280;795;49.296;11.348;2022-11-20T08:20:57;95802.59;;;1.67;100.00
30339;BME280;795;49.296;11.348;2022-11-20T08:23:24;95781.63;;;1.75;100.00
30339;BME280;795;49.296;11.348;2022-11-20T08:25:51;95792.41;;;1.83;100.00
30339;BME280;795;49.296;11.348;2022-11-20T08:28:18;95797.31;;;1.88;100.00
30339;BME280;795;49.296;11.348;2022-11-20T08:30:49;95800.53;;;1.91;100.00
30339;BME280;795;49.296;11.348;2022-11-20T08:33:17;95807.19;;;1.86;100.00
30339;BME280;795;49.296;11.348;2022-11-20T08:35:45;95805.56;;;1.94;100.00
30339;BME280;795;49.296;11.348;2022-11-20T08:38:12;95811.44;;;1.98;100.00
30339;BME280;795;49.296;11.348;2022-11-20T08:40:39;95800.47;;;2.03;100.00
30339;BME280;795;49.296;11.348;2022-11-20T08:43:06;95803.09;;;2.03;100.00
30339;BME280;795;49.296;11.348;2022-11-20T08:45:33;95808.28;;;2.14;100.00
30339;BME280;795;49.296;11.348;2022-11-20T08:48:05;95803.25;;;2.01;100.00
30339;BME280;795;49.296;11.348;2022-11-20T08:50:32;95803.69;;;2.16;100.00
30339;BME280;795;49.296;11.348;2022-11-20T08:53:06;95798.81;;;2.11;100.00
30339;BME280;795;49.296;11.348;2022-11-20T08:55:33;95798.41;;;2.16;100.00
30339;BME280;795;49.296;11.348;2022-11-20T08:58:08;95803.44;;;2.19;100.00
30339;BME280;795;49.296;11.348;2022-11-20T09:03:43;95793.63;;;2.40;100.00
30339;BME280;795;49.296;11.348;2022-11-20T09:06:11;95801.03;;;2.46;100.00
30339;BME280;795;49.296;11.348;2022-11-20T09:08:38;95801.19;;;2.44;100.00
30339;BME280;795;49.296;11.348;2022-11-20T09:11:06;95805.94;;;2.50;100.00
30339;BME280;795;49.296;11.348;2022-11-20T09:13:35;95797.84;;;2.52;100.00
30339;BME280;795;49.296;11.348;2022-11-20T09:16:08;95805.53;;;2.55;100.00
30339;BME280;795;49.296;11.348;2022-11-20T09:18:36;95799.38;;;2.54;100.00
30339;BME280;795;49.296;11.348;2022-11-20T09:21:09;95789.50;;;2.56;100.00
30339;BME280;795;49.296;11.348;2022-11-20T09:23:40;95793.28;;;2.63;100.00
30339;BME280;795;49.296;11.348;2022-11-20T09:26:14;95789.66;;;2.74;100.00
30339;BME280;795;49.296;11.348;2022-11-20T09:28:41;95794.84;;;2.76;100.00
30339;BME280;795;49.296;11.348;2022-11-20T09:31:36;95798.34;;;2.76;100.00
30339;BME280;795;49.296;11.348;2022-11-20T09:34:03;95786.22;;;2.83;100.00
30339;BME280;795;49.296;11.348;2022-11-20T09:36:30;95797.38;;;2.96;100.00
30339;BME280;795;49.296;11.348;2022-11-20T09:38:57;95787.06;;;3.03;100.00
30339;BME280;795;49.296;11.348;2022-11-20T09:42:34;95797.66;;;3.03;100.00
30339;BME280;795;49.296;11.348;2022-11-20T09:45:02;95787.78;;;2.95;100.00
30339;BME280;795;49.296;11.348;2022-11-20T09:50:39;95791.97;;;2.98;100.00
30339;BME280;795;49.296;11.348;2022-11-20T09:53:37;95779.84;;;3.14;100.00
30339;BME280;795;49.296;11.348;2022-11-20T09:56:11;95777.88;;;3.35;100.00
30339;BME280;795;49.296;11.348;2022-11-20T09:58:59;95777.44;;;3.50;100.00
30339;BME280;795;49.296;11.348;2022-11-20T10:01:37;95780.31;;;3.66;100.00
30339;BME280;795;49.296;11.348;2022-11-20T10:04:19;95774.25;;;3.92;100.00
30339;BME280;795;49.296;11.348;2022-11-20T10:09:58;95774.41;;;3.91;100.00
30339;BME280;795;49.296;11.348;2022-11-20T10:12:58;95764.06;;;3.88;100.00
30339;BME280;795;49.296;11.348;2022-11-20T10:19:21;95765.34;;;3.84;100.00
30339;BME280;795;49.296;11.348;2022-11-20T10:22:20;95768.13;;;3.92;100.00
30339;BME280;795;49.296;11.348;2022-11-20T10:25:15;95759.75;;;3.96;100.00
30339;BME280;795;49.296;11.348;2022-11-20T10:28:34;95767.81;;;3.95;100.00
30339;BME280;795;49.296;11.348;2022-11-20T10:31:26;95763.53;;;3.94;100.00
30339;BME280;795;49.296;11.348;2022-11-20T10:33:59;95766.72;;;3.88;100.00
30339;BME280;795;49.296;11.348;2022-11-20T10:36:55;95764.50;;;3.83;100.00
30339;BME280;795;49.296;11.348;2022-11-20T10:39:47;95755.31;;;3.87;100.00
30339;BME280;795;49.296;11.348;2022-11-20T10:48:16;95773.53;;;4.00;100.00
30339;BME280;795;49.296;11.348;2022-11-20T10:51:23;95764.41;;;4.12;100.00
30339;BME280;795;49.296;11.348;2022-11-20T10:57:36;95763.03;;;4.08;100.00
30339;BME280;795;49.296;11.348;2022-11-20T11:00:11;95760.22;;;4.10;100.00
30339;BME280;795;49.296;11.348;2022-11-20T11:02:51;95765.50;;;4.19;100.00
30339;BME280;795;49.296;11.348;2022-11-20T11:05:46;95752.22;;;4.19;100.00
30339;BME280;795;49.296;11.348;2022-11-20T11:08:19;95756.28;;;4.23;100.00
30339;BME280;795;49.296;11.348;2022-11-20T11:11:07;95753.88;;;4.30;100.00
30339;BME280;795;49.296;11.348;2022-11-20T11:13:36;95753.72;;;4.31;100.00
30339;BME280;795;49.296;11.348;2022-11-20T11:16:04;95737.47;;;4.34;100.00
30339;BME280;795;49.296;11.348;2022-11-20T11:18:34;95741.81;;;4.35;100.00
30339;BME280;795;49.296;11.348;2022-11-20T11:21:04;95740.38;;;4.41;100.00
30339;BME280;795;49.296;11.348;2022-11-20T11:23:42;95745.69;;;4.41;100.00
30339;BME280;795;49.296;11.348;2022-11-20T11:26:23;95741.22;;;4.41;100.00
30339;BME280;795;49.296;11.348;2022-11-20T11:29:04;95735.06;;;4.41;100.00
30339;BME280;795;49.296;11.348;2022-11-20T11:31:34;95746.69;;;4.40;100.00
30339;BME280;795;49.296;11.348;2022-11-20T11:34:13;95734.94;;;4.42;100.00
30339;BME280;795;49.296;11.348;2022-11-20T11:36:47;95736.97;;;4.48;100.00
30339;BME280;795;49.296;11.348;2022-11-20T11:39:20;95729.34;;;4.45;100.00
30339;BME280;795;49.296;11.348;2022-11-20T11:41:49;95736.00;;;4.49;100.00
30339;BME280;795;49.296;11.348;2022-11-20T11:44:25;95732.81;;;4.46;100.00
30339;BME280;795;49.296;11.348;2022-11-20T11:47:25;95736.41;;;4.54;100.00
30339;BME280;795;49.296;11.348;2022-11-20T11:53:12;95732.91;;;4.54;100.00
30339;BME280;795;49.296;11.348;2022-11-20T11:58:53;95731.53;;;4.50;100.00
30339;BME280;795;49.296;11.348;2022-11-20T12:01:44;95736.25;;;4.56;100.00
30339;BME280;795;49.296;11.348;2022-11-20T12:10:48;95728.97;;;2.52;100.00
30339;BME280;795;49.296;11.348;2022-11-20T12:13:34;95736.59;;;2.36;100.00
30339;BME280;795;49.296;11.348;2022-11-20T12:16:07;95735.94;;;2.43;100.00
30339;BME280;795;49.296;11.348;2022-11-20T12:18:36;95737.78;;;2.62;100.00
30339;BME280;795;49.296;11.348;2022-11-20T12:30:24;95738.94;;;2.88;100.00
30339;BME280;795;49.296;11.348;2022-11-20T12:36:33;95732.78;;;3.07;100.00
30339;BME280;795;49.296;11.348;2022-11-20T12:39:35;95724.69;;;3.08;100.00
30339;BME280;795;49.296;11.348;2022-11-20T12:43:06;95741.03;;;3.13;100.00
30339;BME280;795;49.296;11.348;2022-11-20T12:49:26;95740.03;;;3.24;100.00
30339;BME280;795;49.296;11.348;2022-11-20T12:55:34;95740.88;;;3.24;100.00
30339;BME280;795;49.296;11.348;2022-11-20T12:58:27;95745.63;;;3.21;100.00
30339;BME280;795;49.296;11.348;2022-11-20T13:04:49;95730.25;;;3.44;100.00
30339;BME280;795;49.296;11.348;2022-11-20T13:07:24;95725.75;;;3.54;100.00
30339;BME280;795;49.296;11.348;2022-11-20T13:09:53;95734.69;;;3.62;100.00
30339;BME280;795;49.296;11.348;2022-11-20T13:12:45;95721.94;;;3.66;100.00
30339;BME280;795;49.296;11.348;2022-11-20T13:15:51;95726.28;;;3.67;100.00
30339;BME280;795;49.296;11.348;2022-11-20T13:18:21;95726.47;;;3.56;100.00
30339;BME280;795;49.296;11.348;2022-11-20T13:20:48;95710.81;;;3.53;100.00
30339;BME280;795;49.296;11.348;2022-11-20T13:23:27;95718.75;;;3.62;100.00
30339;BME280;795;49.296;11.348;2022-11-20T13:26:22;95710.66;;;3.54;100.00
30339;BME280;795;49.296;11.348;2022-11-20T13:29:15;95713.75;;;3.50;100.00
30339;BME280;795;49.296;11.348;2022-11-20T13:34:58;95706.38;;;3.44;100.00
30339;BME280;795;49.296;11.348;2022-11-20T13:37:35;95705.78;;;3.50;100.00
30339;BME280;795;49.296;11.348;2022-11-20T13:40:22;95706.66;;;3.41;100.00
30339;BME280;795;49.296;11.348;2022-11-20T13:43:11;95711.81;;;3.42;100.00
30339;BME280;795;49.296;11.348;2022-11-20T13:46:04;95711.81;;;3.42;100.00
30339;BME280;795;49.296;11.348;2022-11-20T13:48:44;95704.97;;;3.40;100.00
30339;BME280;795;49.296;11.348;2022-11-20T13:51:31;95708.72;;;3.47;100.00
30339;BME280;795;49.296;11.348;2022-11-20T13:57:57;95711.25;;;3.48;100.00
30339;BME280;795;49.296;11.348;2022-11-20T14:00:26;95707.09;;;3.36;100.00
30339;BME280;795;49.296;11.348;2022-11-20T14:05:49;95711.41;;;3.37;100.00
30339;BME280;795;49.296;11.348;2022-11-20T14:08:56;95717.13;;;3.32;100.00
30339;BME280;795;49.296;11.348;2022-11-20T14:11:30;95720.91;;;3.20;100.00
30339;BME280;795;49.296;11.348;2022-11-20T14:14:24;95726.50;;;3.08;100.00
30339;BME280;795;49.296;11.348;2022-11-20T14:17:04;95725.69;;;3.07;100.00
30339;BME280;795;49.296;11.348;2022-11-20T14:19:32;95738.22;;;3.05;100.00
30339;BME280;795;49.296;11.348;2022-11-20T14:22:25;95731.00;;;3.07;100.00
30339;BME280;795;49.296;11.348;2022-11-20T14:25:23;95744.94;;;3.00;100.00
30339;BME280;795;49.296;11.348;2022-11-20T14:27:59;95739.75;;;2.98;100.00
30339;BME280;795;49.296;11.348;2022-11-20T14:30:44;95741.59;;;2.98;100.00
30339;BME280;795;49.296;11.348;2022-11-20T14:33:15;95741.72;;;2.96;100.00
30339;BME280;795;49.296;11.348;2022-11-20T14:35:50;95743.94;;;3.01;100.00
30339;BME280;795;49.296;11.348;2022-11-20T14:38:28;95736.41;;;3.06;100.00
30339;BME280;795;49.296;11.348;2022-11-20T14:41:17;95734.59;;;3.06;100.00
30339;BME280;795;49.296;11.348;2022-11-20T14:43:58;95732.38;;;3.02;100.00
30339;BME280;795;49.296;11.348;2022-11-20T14:46:27;95730.41;;;3.13;100.00
30339;BME280;795;49.296;11.348;2022-11-20T14:49:01;95721.50;;;3.05;100.00
30339;BME280;795;49.296;11.348;2022-11-20T14:51:40;95726.38;;;3.09;100.00
30339;BME280;795;49.296;11.348;2022-11-20T14:54:18;95725.53;;;3.09;100.00